sensor_id;sensor_type;location;lat;lon;timestamp;P1;durP1;ratioP1;P2;durP2;ratioP2
7306;SDS011;3694;48.732;9.248;2023-01-25T00:00:36;48.17;;;30.40;;
7306;SDS011;3694;48.732;9.248;2023-01-25T00:03:02;46.53;;;27.67;;
7306;SDS011;3694;48.732;9.248;2023-01-25T00:05:27;51.77;;;30.80;;
7306;SDS011;3694;48.732;9.248;2023-01-25T00:07:54;50.53;;;31.60;;
7306;SDS011;3694;48.732;9.248;2023-01-25T00:10:20;49.47;;;29.83;;
7306;SDS011;3694;48.732;9.248;2023-01-25T00:12:45;49.67;;;28.47;;
7306;SDS011;3694;48.732;9.248;2023-01-25T00:15:11;51.63;;;28.80;;
7306;SDS011;3694;48.732;9.248;2023-01-25T00:17:37;47.17;;;30.83;;
7306;SDS011;3694;48.732;9.248;2023-01-25T00:20:03;52.27;;;31.20;;
7306;SDS011;3694;48.732;9.248;2023-01-25T00:22:31;48.97;;;30.53;;
7306;SDS011;3694;48.732;9.248;2023-01-25T00:24:57;48.03;;;29.90;;
7306;SDS011;3694;48.732;9.248;2023-01-25T00:27:22;48.60;;;28.17;;
7306;SDS011;3694;48.732;9.248;2023-01-25T00:29:48;45.63;;;29.33;;
7306;SDS011;3694;48.732;9.248;2023-01-25T00:34:43;44.27;;;28.13;;
7306;SDS011;3694;48.732;9.248;2023-01-25T00:37:17;46.90;;;27.97;;
7306;SDS011;3694;48.732;9.248;2023-01-25T00:39:49;47.10;;;27.47;;
7306;SDS011;3694;48.732;9.248;2023-01-25T00:42:16;46.73;;;30.27;;
7306;SDS011;3694;48.732;9.248;2023-01-25T00:44:43;47.57;;;28.93;;
7306;SDS011;3694;48.732;9.248;2023-01-25T00:47:10;47.93;;;26.73;;
7306;SDS011;3694;48.732;9.248;2023-01-25T00:49:36;45.37;;;29.47;;
7306;SDS011;3694;48.732;9.248;2023-01-25T00:52:03;46.07;;;29.00;;
7306;SDS011;3694;48.732;9.248;2023-01-25T00:54:29;45.90;;;28.37;;
7306;SDS011;3694;48.732;9.248;2023-01-25T00:56:54;41.90;;;27.93;;
7306;SDS011;3694;48.732;9.248;2023-01-25T00:59:21;49.20;;;30.63;;
7306;SDS011;3694;48.732;9.248;2023-01-25T01:01:47;51.17;;;29.87;;
7306;SDS011;3694;48.732;9.248;2023-01-25T01:04:13;47.37;;;28.77;;
7306;SDS011;3694;48.732;9.248;2023-01-25T01:06:39;49.33;;;28.50;;
7306;SDS011;3694;48.732;9.248;2023-01-25T01:09:06;46.80;;;28.33;;
7306;SDS011;3694;48.732;9.248;2023-01-25T01:11:35;49.67;;;29.60;;
7306;SDS011;3694;48.732;9.248;2023-01-25T01:14:01;54.17;;;31.10;;
7306;SDS011;3694;48.732;9.248;2023-01-25T01:16:26;46.40;;;26.40;;
7306;SDS011;3694;48.732;9.248;2023-01-25T01:18:52;47.33;;;31.10;;
7306;SDS011;3694;48.732;9.248;2023-01-25T01:21:17;43.67;;;27.33;;
7306;SDS011;3694;48.732;9.248;2023-01-25T01:23:43;49.33;;;29.47;;
7306;SDS011;3694;48.732;9.248;2023-01-25T01:26:10;49.87;;;30.70;;
7306;SDS011;3694;48.732;9.248;2023-01-25T01:28:39;49.20;;;30.03;;
7306;SDS011;3694;48.732;9.248;2023-01-25T01:31:16;43.40;;;25.83;;
7306;SDS011;3694;48.732;9.248;2023-01-25T01:33:43;52.07;;;31.13;;
7306;SDS011;3694;48.732;9.248;2023-01-25T01:38:36;49.97;;;30.83;;
7306;SDS011;3694;48.732;9.248;2023-01-25T01:41:01;46.97;;;29.30;;
7306;SDS011;3694;48.732;9.248;2023-01-25T01:43:27;47.47;;;30.73;;
7306;SDS011;3694;48.732;9.248;2023-01-25T01:45:56;41.40;;;25.57;;
7306;SDS011;3694;48.732;9.248;2023-01-25T01:48:44;47.77;;;27.40;;
7306;SDS011;3694;48.732;9.248;2023-01-25T01:53:49;49.53;;;30.70;;
7306;SDS011;3694;48.732;9.248;2023-01-25T01:56:22;46.00;;;28.20;;
7306;SDS011;3694;48.732;9.248;2023-01-25T01:58:55;47.10;;;29.60;;
7306;SDS011;3694;48.732;9.248;2023-01-25T02:01:23;51.20;;;29.50;;
7306;SDS011;3694;48.732;9.248;2023-01-25T02:03:48;46.13;;;28.43;;
7306;SDS011;3694;48.732;9.248;2023-01-25T02:06:18;42.83;;;27.23;;
7306;SDS011;3694;48.732;9.248;2023-01-25T02:08:50;46.57;;;28.03;;
7306;SDS011;3694;48.732;9.248;2023-01-25T02:11:16;46.00;;;27.63;;
7306;SDS011;3694;48.732;9.248;2023-01-25T02:13:44;44.03;;;28.37;;
7306;SDS011;3694;48.732;9.248;2023-01-25T02:16:13;49.87;;;29.43;;
7306;SDS011;3694;48.732;9.248;2023-01-25T02:18:41;51.07;;;31.10;;
7306;SDS011;3694;48.732;9.248;2023-01-25T02:21:07;47.53;;;30.00;;
7306;SDS011;3694;48.732;9.248;2023-01-25T02:25:59;48.17;;;30.00;;
7306;SDS011;3694;48.732;9.248;2023-01-25T02:30:52;50.33;;;29.43;;
7306;SDS011;3694;48.732;9.248;2023-01-25T02:33:18;53.03;;;30.53;;
7306;SDS011;3694;48.732;9.248;2023-01-25T02:35:47;46.37;;;28.97;;
7306;SDS011;3694;48.732;9.248;2023-01-25T02:38:18;47.53;;;29.73;;
7306;SDS011;3694;48.732;9.248;2023-01-25T02:40:46;44.73;;;28.63;;
7306;SDS011;3694;48.732;9.248;2023-01-25T02:43:16;44.87;;;28.40;;
7306;SDS011;3694;48.732;9.248;2023-01-25T02:45:43;44.00;;;28.10;;
7306;SDS011;3694;48.732;9.248;2023-01-25T02:48:13;43.23;;;28.33;;
7306;SDS011;3694;48.732;9.248;2023-01-25T02:50:38;45.80;;;27.83;;
7306;SDS011;3694;48.732;9.248;2023-01-25T02:53:04;38.30;;;25.33;;
7306;SDS011;3694;48.732;9.248;2023-01-25T02:55:30;40.50;;;25.20;;
7306;SDS011;3694;48.732;9.248;2023-01-25T02:57:55;39.77;;;25.10;;
7306;SDS011;3694;48.732;9.248;2023-01-25T03:00:21;39.10;;;25.53;;
7306;SDS011;3694;48.732;9.248;2023-01-25T03:02:46;38.17;;;23.87;;
7306;SDS011;3694;48.732;9.248;2023-01-25T03:05:12;38.63;;;25.03;;
7306;SDS011;3694;48.732;9.248;2023-01-25T03:07:37;38.27;;;23.00;;
7306;SDS011;3694;48.732;9.248;2023-01-25T03:10:03;33.43;;;22.40;;
7306;SDS011;3694;48.732;9.248;2023-01-25T03:12:29;34.03;;;19.63;;
7306;SDS011;3694;48.732;9.248;2023-01-25T03:14:55;40.10;;;24.17;;
7306;SDS011;3694;48.732;9.248;2023-01-25T03:17:20;33.93;;;21.23;;
7306;SDS011;3694;48.732;9.248;2023-01-25T03:19:46;37.87;;;23.87;;
7306;SDS011;3694;48.732;9.248;2023-01-25T03:22:11;35.63;;;23.00;;
7306;SDS011;3694;48.732;9.248;2023-01-25T03:24:37;36.70;;;24.37;;
7306;SDS011;3694;48.732;9.248;2023-01-25T03:27:02;40.70;;;24.53;;
7306;SDS011;3694;48.732;9.248;2023-01-25T03:29:42;35.20;;;23.27;;
7306;SDS011;3694;48.732;9.248;2023-01-25T03:32:08;36.93;;;22.97;;
7306;SDS011;3694;48.732;9.248;2023-01-25T03:34:34;35.87;;;23.03;;
7306;SDS011;3694;48.732;9.248;2023-01-25T03:37:00;39.63;;;24.43;;
7306;SDS011;3694;48.732;9.248;2023-01-25T03:39:26;37.07;;;23.17;;
7306;SDS011;3694;48.732;9.248;2023-01-25T03:41:52;35.33;;;22.03;;
7306;SDS011;3694;48.732;9.248;2023-01-25T03:44:17;34.57;;;23.37;;
7306;SDS011;3694;48.732;9.248;2023-01-25T03:46:43;33.57;;;21.30;;
7306;SDS011;3694;48.732;9.248;2023-01-25T03:49:08;35.50;;;22.83;;
7306;SDS011;3694;48.732;9.248;2023-01-25T03:51:34;35.23;;;23.67;;
7306;SDS011;3694;48.732;9.248;2023-01-25T03:53:59;35.87;;;22.97;;
7306;SDS011;3694;48.732;9.248;2023-01-25T03:56:25;35.07;;;21.47;;
7306;SDS011;3694;48.732;9.248;2023-01-25T03:58:51;35.67;;;21.60;;
7306;SDS011;3694;48.732;9.248;2023-01-25T04:01:16;35.20;;;21.30;;
7306;SDS011;3694;48.732;9.248;2023-01-25T04:03:42;32.70;;;21.67;;
7306;SDS011;3694;48.732;9.248;2023-01-25T04:06:07;32.23;;;20.57;;
7306;SDS011;3694;48.732;9.248;2023-01-25T04:08:33;36.47;;;22.10;;
7306;SDS011;3694;48.732;9.248;2023-01-25T04:11:00;35.83;;;21.57;;
7306;SDS011;3694;48.732;9.248;2023-01-25T04:13:27;33.63;;;21.90;;
7306;SDS011;3694;48.732;9.248;2023-01-25T04:15:53;30.63;;;20.90;;
7306;SDS011;3694;48.732;9.248;2023-01-25T04:18:19;28.57;;;18.00;;
7306;SDS011;3694;48.732;9.248;2023-01-25T04:20:45;27.10;;;18.40;;
7306;SDS011;3694;48.732;9.248;2023-01-25T04:23:17;31.47;;;19.90;;
7306;SDS011;3694;48.732;9.248;2023-01-25T04:25:42;30.40;;;19.67;;
7306;SDS011;3694;48.732;9.248;2023-01-25T04:28:07;29.87;;;18.97;;
7306;SDS011;3694;48.732;9.248;2023-01-25T04:30:33;30.47;;;19.73;;
7306;SDS011;3694;48.732;9.248;2023-01-25T04:33:04;27.90;;;19.10;;
7306;SDS011;3694;48.732;9.248;2023-01-25T04:35:30;29.50;;;18.93;;
7306;SDS011;3694;48.732;9.248;2023-01-25T04:37:56;30.57;;;20.13;;
7306;SDS011;3694;48.732;9.248;2023-01-25T04:40:23;28.47;;;19.37;;
7306;SDS011;3694;48.732;9.248;2023-01-25T04:42:49;28.00;;;19.83;;
7306;SDS011;3694;48.732;9.248;2023-01-25T04:45:15;27.40;;;18.30;;
7306;SDS011;3694;48.732;9.248;2023-01-25T04:47:40;25.17;;;17.43;;
7306;SDS011;3694;48.732;9.248;2023-01-25T04:50:06;28.97;;;18.57;;
7306;SDS011;3694;48.732;9.248;2023-01-25T04:52:32;28.20;;;18.40;;
7306;SDS011;3694;48.732;9.248;2023-01-25T04:54:57;27.70;;;18.80;;
7306;SDS011;3694;48.732;9.248;2023-01-25T04:57:23;26.90;;;18.60;;
7306;SDS011;3694;48.732;9.248;2023-01-25T04:59:48;27.37;;;18.60;;
7306;SDS011;3694;48.732;9.248;2023-01-25T05:02:14;26.27;;;17.07;;
7306;SDS011;3694;48.732;9.248;2023-01-25T05:04:39;26.70;;;18.03;;
7306;SDS011;3694;48.732;9.248;2023-01-25T05:07:05;25.53;;;18.13;;
7306;SDS011;3694;48.732;9.248;2023-01-25T05:09:30;24.83;;;16.90;;
7306;SDS011;3694;48.732;9.248;2023-01-25T05:11:56;25.17;;;17.53;;
7306;SDS011;3694;48.732;9.248;2023-01-25T05:14:21;28.03;;;18.50;;
7306;SDS011;3694;48.732;9.248;2023-01-25T05:16:47;27.37;;;18.40;;
7306;SDS011;3694;48.732;9.248;2023-01-25T05:19:12;26.10;;;17.47;;
7306;SDS011;3694;48.732;9.248;2023-01-25T05:21:38;26.97;;;17.77;;
7306;SDS011;3694;48.732;9.248;2023-01-25T05:24:22;24.93;;;17.50;;
7306;SDS011;3694;48.732;9.248;2023-01-25T05:26:48;24.93;;;17.33;;
7306;SDS011;3694;48.732;9.248;2023-01-25T05:29:48;26.47;;;17.57;;
7306;SDS011;3694;48.732;9.248;2023-01-25T05:32:18;25.73;;;17.73;;
7306;SDS011;3694;48.732;9.248;2023-01-25T05:34:45;23.63;;;17.23;;
7306;SDS011;3694;48.732;9.248;2023-01-25T05:37:12;25.67;;;16.77;;
7306;SDS011;3694;48.732;9.248;2023-01-25T05:39:39;20.83;;;14.30;;
7306;SDS011;3694;48.732;9.248;2023-01-25T05:42:15;23.07;;;16.17;;
7306;SDS011;3694;48.732;9.248;2023-01-25T05:44:42;24.53;;;16.77;;
7306;SDS011;3694;48.732;9.248;2023-01-25T05:47:17;22.93;;;16.97;;
7306;SDS011;3694;48.732;9.248;2023-01-25T05:49:42;25.37;;;16.07;;
7306;SDS011;3694;48.732;9.248;2023-01-25T05:52:12;20.83;;;15.73;;
7306;SDS011;3694;48.732;9.248;2023-01-25T05:54:39;21.73;;;16.13;;
7306;SDS011;3694;48.732;9.248;2023-01-25T05:57:04;22.73;;;16.57;;
7306;SDS011;3694;48.732;9.248;2023-01-25T05:59:30;20.83;;;13.83;;
7306;SDS011;3694;48.732;9.248;2023-01-25T06:01:55;22.17;;;15.87;;
7306;SDS011;3694;48.732;9.248;2023-01-25T06:04:21;22.17;;;16.27;;
7306;SDS011;3694;48.732;9.248;2023-01-25T06:06:46;22.53;;;17.10;;
7306;SDS011;3694;48.732;9.248;2023-01-25T06:09:12;20.57;;;15.03;;
7306;SDS011;3694;48.732;9.248;2023-01-25T06:11:38;22.73;;;16.80;;
7306;SDS011;3694;48.732;9.248;2023-01-25T06:14:06;22.83;;;15.47;;
7306;SDS011;3694;48.732;9.248;2023-01-25T06:16:32;22.47;;;16.00;;
7306;SDS011;3694;48.732;9.248;2023-01-25T06:18:57;21.63;;;16.20;;
7306;SDS011;3694;48.732;9.248;2023-01-25T06:21:23;22.20;;;16.57;;
7306;SDS011;3694;48.732;9.248;2023-01-25T06:23:48;21.77;;;15.93;;
7306;SDS011;3694;48.732;9.248;2023-01-25T06:26:14;22.47;;;16.00;;
7306;SDS011;3694;48.732;9.248;2023-01-25T06:28:39;22.53;;;15.80;;
7306;SDS011;3694;48.732;9.248;2023-01-25T06:31:10;22.93;;;16.30;;
7306;SDS011;3694;48.732;9.248;2023-01-25T06:33:40;19.93;;;15.20;;
7306;SDS011;3694;48.732;9.248;2023-01-25T06:36:08;22.30;;;16.13;;
7306;SDS011;3694;48.732;9.248;2023-01-25T06:38:35;23.17;;;16.00;;
7306;SDS011;3694;48.732;9.248;2023-01-25T06:41:02;21.87;;;15.93;;
7306;SDS011;3694;48.732;9.248;2023-01-25T06:43:29;21.80;;;16.40;;
7306;SDS011;3694;48.732;9.248;2023-01-25T06:45:56;21.57;;;16.23;;
7306;SDS011;3694;48.732;9.248;2023-01-25T06:48:27;20.70;;;14.73;;
7306;SDS011;3694;48.732;9.248;2023-01-25T06:50:58;21.67;;;16.17;;
7306;SDS011;3694;48.732;9.248;2023-01-25T06:53:25;21.67;;;16.43;;
7306;SDS011;3694;48.732;9.248;2023-01-25T06:55:56;22.87;;;15.43;;
7306;SDS011;3694;48.732;9.248;2023-01-25T06:58:26;21.57;;;16.17;;
7306;SDS011;3694;48.732;9.248;2023-01-25T07:00:52;20.43;;;15.60;;
7306;SDS011;3694;48.732;9.248;2023-01-25T07:03:22;20.70;;;16.20;;
7306;SDS011;3694;48.732;9.248;2023-01-25T07:05:48;20.50;;;15.93;;
7306;SDS011;3694;48.732;9.248;2023-01-25T07:08:14;21.43;;;15.67;;
7306;SDS011;3694;48.732;9.248;2023-01-25T07:10:41;22.60;;;16.37;;
7306;SDS011;3694;48.732;9.248;2023-01-25T07:13:06;20.43;;;16.43;;
7306;SDS011;3694;48.732;9.248;2023-01-25T07:15:32;22.93;;;15.50;;
7306;SDS011;3694;48.732;9.248;2023-01-25T07:17:57;22.10;;;15.50;;
7306;SDS011;3694;48.732;9.248;2023-01-25T07:20:23;20.03;;;15.37;;
7306;SDS011;3694;48.732;9.248;2023-01-25T07:22:49;19.77;;;14.70;;
7306;SDS011;3694;48.732;9.248;2023-01-25T07:25:14;20.83;;;15.20;;
7306;SDS011;3694;48.732;9.248;2023-01-25T07:27:40;23.10;;;16.90;;
7306;SDS011;3694;48.732;9.248;2023-01-25T07:30:05;20.60;;;15.83;;
7306;SDS011;3694;48.732;9.248;2023-01-25T07:32:31;21.70;;;15.40;;
7306;SDS011;3694;48.732;9.248;2023-01-25T07:34:58;20.30;;;15.50;;
7306;SDS011;3694;48.732;9.248;2023-01-25T07:37:23;21.13;;;16.27;;
7306;SDS011;3694;48.732;9.248;2023-01-25T07:39:51;20.97;;;14.93;;
7306;SDS011;3694;48.732;9.248;2023-01-25T07:42:17;20.93;;;15.27;;
7306;SDS011;3694;48.732;9.248;2023-01-25T07:44:43;20.63;;;15.20;;
7306;SDS011;3694;48.732;9.248;2023-01-25T07:47:08;22.07;;;16.17;;
7306;SDS011;3694;48.732;9.248;2023-01-25T07:49:34;25.00;;;16.87;;
7306;SDS011;3694;48.732;9.248;2023-01-25T07:51:59;21.07;;;16.10;;
7306;SDS011;3694;48.732;9.248;2023-01-25T07:54:25;23.73;;;17.50;;
7306;SDS011;3694;48.732;9.248;2023-01-25T07:56:50;19.90;;;15.50;;
7306;SDS011;3694;48.732;9.248;2023-01-25T07:59:18;20.87;;;16.17;;
7306;SDS011;3694;48.732;9.248;2023-01-25T08:01:44;22.20;;;16.03;;
7306;SDS011;3694;48.732;9.248;2023-01-25T08:04:09;20.13;;;15.90;;
7306;SDS011;3694;48.732;9.248;2023-01-25T08:06:35;22.67;;;16.73;;
7306;SDS011;3694;48.732;9.248;2023-01-25T08:09:10;20.03;;;15.50;;
7306;SDS011;3694;48.732;9.248;2023-01-25T08:11:38;20.47;;;15.43;;
7306;SDS011;3694;48.732;9.248;2023-01-25T08:14:05;21.07;;;16.40;;
7306;SDS011;3694;48.732;9.248;2023-01-25T08:16:32;20.37;;;15.57;;
7306;SDS011;3694;48.732;9.248;2023-01-25T08:18:58;18.47;;;14.53;;
7306;SDS011;3694;48.732;9.248;2023-01-25T08:21:26;21.63;;;15.47;;
7306;SDS011;3694;48.732;9.248;2023-01-25T08:23:59;21.50;;;15.77;;
7306;SDS011;3694;48.732;9.248;2023-01-25T08:26:26;22.20;;;16.40;;
7306;SDS011;3694;48.732;9.248;2023-01-25T08:28:53;21.47;;;16.17;;
7306;SDS011;3694;48.732;9.248;2023-01-25T08:31:22;24.10;;;17.67;;
7306;SDS011;3694;48.732;9.248;2023-01-25T08:33:51;24.00;;;17.73;;
7306;SDS011;3694;48.732;9.248;2023-01-25T08:36:17;24.70;;;17.33;;
7306;SDS011;3694;48.732;9.248;2023-01-25T08:38:44;20.70;;;16.40;;
7306;SDS011;3694;48.732;9.248;2023-01-25T08:41:12;22.90;;;17.73;;
7306;SDS011;3694;48.732;9.248;2023-01-25T08:43:44;22.37;;;16.47;;
7306;SDS011;3694;48.732;9.248;2023-01-25T08:46:11;23.10;;;17.13;;
7306;SDS011;3694;48.732;9.248;2023-01-25T08:48:38;21.53;;;16.53;;
7306;SDS011;3694;48.732;9.248;2023-01-25T08:51:03;21.77;;;16.30;;
7306;SDS011;3694;48.732;9.248;2023-01-25T08:53:31;22.57;;;16.37;;
7306;SDS011;3694;48.732;9.248;2023-01-25T08:56:04;22.23;;;16.73;;
7306;SDS011;3694;48.732;9.248;2023-01-25T08:58:38;20.90;;;17.17;;
7306;SDS011;3694;48.732;9.248;2023-01-25T09:01:06;22.33;;;17.60;;
7306;SDS011;3694;48.732;9.248;2023-01-25T09:03:36;23.60;;;17.33;;
7306;SDS011;3694;48.732;9.248;2023-01-25T09:06:03;23.13;;;17.50;;
7306;SDS011;3694;48.732;9.248;2023-01-25T09:08:29;23.47;;;17.43;;
7306;SDS011;3694;48.732;9.248;2023-01-25T09:10:59;22.13;;;15.93;;
7306;SDS011;3694;48.732;9.248;2023-01-25T09:13:26;23.40;;;17.30;;
7306;SDS011;3694;48.732;9.248;2023-01-25T09:15:56;22.03;;;17.03;;
7306;SDS011;3694;48.732;9.248;2023-01-25T09:18:25;24.27;;;17.77;;
7306;SDS011;3694;48.732;9.248;2023-01-25T09:20:51;23.73;;;17.77;;
7306;SDS011;3694;48.732;9.248;2023-01-25T09:23:17;24.23;;;18.03;;
7306;SDS011;3694;48.732;9.248;2023-01-25T09:25:46;21.53;;;15.73;;
7306;SDS011;3694;48.732;9.248;2023-01-25T09:28:12;22.73;;;16.93;;
7306;SDS011;3694;48.732;9.248;2023-01-25T09:30:37;21.13;;;15.83;;
7306;SDS011;3694;48.732;9.248;2023-01-25T09:33:03;22.80;;;16.73;;
7306;SDS011;3694;48.732;9.248;2023-01-25T09:35:29;22.00;;;16.73;;
7306;SDS011;3694;48.732;9.248;2023-01-25T09:37:55;22.33;;;17.47;;
7306;SDS011;3694;48.732;9.248;2023-01-25T09:40:21;21.70;;;16.43;;
7306;SDS011;3694;48.732;9.248;2023-01-25T09:42:55;20.57;;;16.57;;
7306;SDS011;3694;48.732;9.248;2023-01-25T09:45:26;22.47;;;16.63;;
7306;SDS011;3694;48.732;9.248;2023-01-25T09:50:36;24.33;;;16.63;;
7306;SDS011;3694;48.732;9.248;2023-01-25T09:53:24;22.23;;;16.87;;
7306;SDS011;3694;48.732;9.248;2023-01-25T09:56:03;20.63;;;12.27;;
7306;SDS011;3694;48.732;9.248;2023-01-25T09:58:39;20.67;;;16.67;;
7306;SDS011;3694;48.732;9.248;2023-01-25T10:01:29;22.10;;;17.43;;
7306;SDS011;3694;48.732;9.248;2023-01-25T10:04:06;20.13;;;14.97;;
7306;SDS011;3694;48.732;9.248;2023-01-25T10:06:39;21.30;;;17.03;;
7306;SDS011;3694;48.732;9.248;2023-01-25T10:11:45;20.27;;;15.33;;
7306;SDS011;3694;48.732;9.248;2023-01-25T10:14:12;20.83;;;15.33;;
7306;SDS011;3694;48.732;9.248;2023-01-25T10:19:19;21.97;;;16.03;;
7306;SDS011;3694;48.732;9.248;2023-01-25T10:21:54;18.33;;;14.83;;
7306;SDS011;3694;48.732;9.248;2023-01-25T10:24:37;21.60;;;16.73;;
7306;SDS011;3694;48.732;9.248;2023-01-25T10:30:03;21.77;;;17.23;;
7306;SDS011;3694;48.732;9.248;2023-01-25T10:32:50;20.20;;;16.03;;
7306;SDS011;3694;48.732;9.248;2023-01-25T10:35:20;22.00;;;15.77;;
7306;SDS011;3694;48.732;9.248;2023-01-25T10:37:49;18.90;;;15.13;;
7306;SDS011;3694;48.732;9.248;2023-01-25T10:40:20;21.57;;;15.40;;
7306;SDS011;3694;48.732;9.248;2023-01-25T10:45:41;17.23;;;13.40;;
7306;SDS011;3694;48.732;9.248;2023-01-25T10:48:10;18.00;;;14.80;;
7306;SDS011;3694;48.732;9.248;2023-01-25T10:50:42;18.93;;;14.83;;
7306;SDS011;3694;48.732;9.248;2023-01-25T10:56:22;21.60;;;15.37;;
7306;SDS011;3694;48.732;9.248;2023-01-25T10:58:48;18.57;;;15.03;;
7306;SDS011;3694;48.732;9.248;2023-01-25T11:01:29;19.97;;;14.93;;
7306;SDS011;3694;48.732;9.248;2023-01-25T11:03:58;19.43;;;13.77;;
7306;SDS011;3694;48.732;9.248;2023-01-25T11:06:36;19.70;;;15.37;;
7306;SDS011;3694;48.732;9.248;2023-01-25T11:12:32;18.47;;;14.80;;
7306;SDS011;3694;48.732;9.248;2023-01-25T11:14:35;19.07;;;14.47;;
7306;SDS011;3694;48.732;9.248;2023-01-25T11:17:02;19.90;;;16.37;;
7306;SDS011;3694;48.732;9.248;2023-01-25T11:19:36;17.87;;;14.63;;
7306;SDS011;3694;48.732;9.248;2023-01-25T11:22:20;20.37;;;15.47;;
7306;SDS011;3694;48.732;9.248;2023-01-25T11:24:50;18.80;;;15.03;;
7306;SDS011;3694;48.732;9.248;2023-01-25T11:32:32;20.93;;;15.13;;
7306;SDS011;3694;48.732;9.248;2023-01-25T11:34:57;21.57;;;15.93;;
7306;SDS011;3694;48.732;9.248;2023-01-25T11:37:27;19.37;;;15.50;;
7306;SDS011;3694;48.732;9.248;2023-01-25T11:40:30;19.03;;;14.50;;
7306;SDS011;3694;48.732;9.248;2023-01-25T11:43:02;19.33;;;14.63;;
7306;SDS011;3694;48.732;9.248;2023-01-25T11:46:05;18.13;;;13.80;;
7306;SDS011;3694;48.732;9.248;2023-01-25T11:54:25;18.37;;;14.30;;
7306;SDS011;3694;48.732;9.248;2023-01-25T11:57:15;18.70;;;15.50;;
7306;SDS011;3694;48.732;9.248;2023-01-25T12:00:19;17.70;;;14.73;;
7306;SDS011;3694;48.732;9.248;2023-01-25T12:10:50;21.57;;;16.53;;
7306;SDS011;3694;48.732;9.248;2023-01-25T12:13:40;21.57;;;16.93;;
7306;SDS011;3694;48.732;9.248;2023-01-25T12:19:23;22.20;;;16.63;;
7306;SDS011;3694;48.732;9.248;2023-01-25T12:22:04;21.37;;;16.23;;
7306;SDS011;3694;48.732;9.248;2023-01-25T12:30:29;20.47;;;15.93;;
7306;SDS011;3694;48.732;9.248;2023-01-25T12:36:06;21.33;;;16.13;;
7306;SDS011;3694;48.732;9.248;2023-01-25T12:38:59;22.87;;;17.50;;
7306;SDS011;3694;48.732;9.248;2023-01-25T12:44:16;23.93;;;17.97;;
7306;SDS011;3694;48.732;9.248;2023-01-25T12:49:40;22.43;;;16.87;;
7306;SDS011;3694;48.732;9.248;2023-01-25T12:52:44;21.83;;;17.43;;
7306;SDS011;3694;48.732;9.248;2023-01-25T12:55:06;22.20;;;17.23;;
7306;SDS011;3694;48.732;9.248;2023-01-25T13:00:28;21.27;;;17.70;;
7306;SDS011;3694;48.732;9.248;2023-01-25T13:05:35;21.27;;;16.77;;
7306;SDS011;3694;48.732;9.248;2023-01-25T13:11:04;20.60;;;16.20;;
7306;SDS011;3694;48.732;9.248;2023-01-25T13:13:40;22.43;;;16.97;;
7306;SDS011;3694;48.732;9.248;2023-01-25T13:16:21;22.33;;;16.50;;
7306;SDS011;3694;48.732;9.248;2023-01-25T13:18:55;19.20;;;15.97;;
7306;SDS011;3694;48.732;9.248;2023-01-25T13:32:00;23.77;;;17.80;;
7306;SDS011;3694;48.732;9.248;2023-01-25T13:37:22;22.60;;;17.47;;
7306;SDS011;3694;48.732;9.248;2023-01-25T13:43:05;20.80;;;16.20;;
7306;SDS011;3694;48.732;9.248;2023-01-25T13:45:42;21.40;;;16.97;;
7306;SDS011;3694;48.732;9.248;2023-01-25T13:50:37;23.70;;;17.63;;
7306;SDS011;3694;48.732;9.248;2023-01-25T13:55:40;24.37;;;18.70;;
7306;SDS011;3694;48.732;9.248;2023-01-25T13:58:20;24.03;;;17.90;;
7306;SDS011;3694;48.732;9.248;2023-01-25T14:00:58;27.93;;;19.73;;
7306;SDS011;3694;48.732;9.248;2023-01-25T14:03:35;26.47;;;19.03;;
7306;SDS011;3694;48.732;9.248;2023-01-25T14:06:08;25.03;;;18.73;;
7306;SDS011;3694;48.732;9.248;2023-01-25T14:09:02;25.67;;;18.73;;
7306;SDS011;3694;48.732;9.248;2023-01-25T14:11:31;26.10;;;19.13;;
7306;SDS011;3694;48.732;9.248;2023-01-25T14:14:13;24.27;;;18.90;;
7306;SDS011;3694;48.732;9.248;2023-01-25T14:16:42;26.60;;;19.00;;
7306;SDS011;3694;48.732;9.248;2023-01-25T14:19:24;28.37;;;20.40;;
7306;SDS011;3694;48.732;9.248;2023-01-25T14:24:44;24.50;;;18.87;;
7306;SDS011;3694;48.732;9.248;2023-01-25T14:27:11;27.43;;;19.87;;
7306;SDS011;3694;48.732;9.248;2023-01-25T14:29:38;26.17;;;19.53;;
7306;SDS011;3694;48.732;9.248;2023-01-25T14:32:05;25.07;;;19.70;;
7306;SDS011;3694;48.732;9.248;2023-01-25T14:34:30;29.83;;;20.43;;
7306;SDS011;3694;48.732;9.248;2023-01-25T14:39:42;27.07;;;19.57;;
7306;SDS011;3694;48.732;9.248;2023-01-25T14:42:08;28.03;;;20.20;;
7306;SDS011;3694;48.732;9.248;2023-01-25T14:44:34;28.17;;;19.57;;
7306;SDS011;3694;48.732;9.248;2023-01-25T14:47:19;27.50;;;19.70;;
7306;SDS011;3694;48.732;9.248;2023-01-25T14:49:46;28.77;;;20.50;;
7306;SDS011;3694;48.732;9.248;2023-01-25T14:52:12;28.20;;;20.33;;
7306;SDS011;3694;48.732;9.248;2023-01-25T14:54:51;29.27;;;20.40;;
7306;SDS011;3694;48.732;9.248;2023-01-25T14:57:40;28.57;;;20.07;;
7306;SDS011;3694;48.732;9.248;2023-01-25T15:00:18;31.70;;;21.97;;
7306;SDS011;3694;48.732;9.248;2023-01-25T15:02:47;29.17;;;21.60;;
7306;SDS011;3694;48.732;9.248;2023-01-25T15:05:16;27.37;;;20.27;;
7306;SDS011;3694;48.732;9.248;2023-01-25T15:10:17;29.13;;;21.33;;
7306;SDS011;3694;48.732;9.248;2023-01-25T15:12:54;30.93;;;21.10;;
7306;SDS011;3694;48.732;9.248;2023-01-25T15:15:29;27.93;;;20.07;;
7306;SDS011;3694;48.732;9.248;2023-01-25T15:17:56;30.90;;;21.67;;
7306;SDS011;3694;48.732;9.248;2023-01-25T15:20:35;32.90;;;21.37;;
7306;SDS011;3694;48.732;9.248;2023-01-25T15:28:15;33.03;;;22.07;;
7306;SDS011;3694;48.732;9.248;2023-01-25T15:30:40;31.77;;;21.63;;
7306;SDS011;3694;48.732;9.248;2023-01-25T15:33:07;36.83;;;25.10;;
7306;SDS011;3694;48.732;9.248;2023-01-25T15:35:41;35.07;;;23.27;;
7306;SDS011;3694;48.732;9.248;2023-01-25T15:38:08;28.20;;;21.03;;
7306;SDS011;3694;48.732;9.248;2023-01-25T15:40:36;32.23;;;21.20;;
7306;SDS011;3694;48.732;9.248;2023-01-25T15:43:01;29.77;;;19.87;;
7306;SDS011;3694;48.732;9.248;2023-01-25T15:45:27;27.67;;;19.97;;
7306;SDS011;3694;48.732;9.248;2023-01-25T15:47:53;29.50;;;19.97;;
7306;SDS011;3694;48.732;9.248;2023-01-25T15:50:18;30.03;;;19.90;;
7306;SDS011;3694;48.732;9.248;2023-01-25T15:52:45;30.20;;;20.00;;
7306;SDS011;3694;48.732;9.248;2023-01-25T15:55:11;26.73;;;18.37;;
7306;SDS011;3694;48.732;9.248;2023-01-25T15:57:38;25.10;;;17.80;;
7306;SDS011;3694;48.732;9.248;2023-01-25T16:00:05;25.40;;;16.77;;
7306;SDS011;3694;48.732;9.248;2023-01-25T16:02:38;26.23;;;17.00;;
7306;SDS011;3694;48.732;9.248;2023-01-25T16:05:03;25.07;;;18.10;;
7306;SDS011;3694;48.732;9.248;2023-01-25T16:07:29;27.73;;;17.67;;
7306;SDS011;3694;48.732;9.248;2023-01-25T16:09:55;26.67;;;18.30;;
7306;SDS011;3694;48.732;9.248;2023-01-25T16:12:21;31.87;;;19.20;;
7306;SDS011;3694;48.732;9.248;2023-01-25T16:14:47;28.77;;;18.30;;
7306;SDS011;3694;48.732;9.248;2023-01-25T16:17:19;27.37;;;17.30;;
7306;SDS011;3694;48.732;9.248;2023-01-25T16:19:48;25.13;;;16.77;;
7306;SDS011;3694;48.732;9.248;2023-01-25T16:22:13;25.73;;;16.57;;
7306;SDS011;3694;48.732;9.248;2023-01-25T16:24:39;25.33;;;17.13;;
7306;SDS011;3694;48.732;9.248;2023-01-25T16:27:07;23.53;;;17.33;;
7306;SDS011;3694;48.732;9.248;2023-01-25T16:29:40;23.70;;;16.73;;
7306;SDS011;3694;48.732;9.248;2023-01-25T16:32:06;24.20;;;16.33;;
7306;SDS011;3694;48.732;9.248;2023-01-25T16:34:32;24.27;;;16.37;;
7306;SDS011;3694;48.732;9.248;2023-01-25T16:36:57;24.77;;;16.60;;
7306;SDS011;3694;48.732;9.248;2023-01-25T16:39:24;25.17;;;17.37;;
7306;SDS011;3694;48.732;9.248;2023-01-25T16:41:52;23.97;;;16.60;;
7306;SDS011;3694;48.732;9.248;2023-01-25T16:44:18;24.93;;;17.10;;
7306;SDS011;3694;48.732;9.248;2023-01-25T16:46:44;24.83;;;16.47;;
7306;SDS011;3694;48.732;9.248;2023-01-25T16:49:13;25.70;;;16.47;;
7306;SDS011;3694;48.732;9.248;2023-01-25T16:51:44;24.57;;;17.50;;